Wetterdaten: Woche 28.03.16 - 03.04.16 (KW13)
Datum Zeit Temperatur Luftfeuchte Luftdruck Niederschlag Windrichtung Sonnenschein Solar Wind
28.03.2016 00:00 4,6 C 90 % 1013,0 hPa 0,0 l/m SW 0,00 h 0 W/m 3,2 km/h (1 Bft)
28.03.2016 01:00 3,4 C 91 % 1012,5 hPa 0,0 l/m N 0,00 h 0 W/m 0,0 km/h (0 Bft)
28.03.2016 02:00 2,2 C 92 % 1012,4 hPa 0,0 l/m N 0,00 h 0 W/m 0,0 km/h (0 Bft)
28.03.2016 03:00 1,2 C 93 % 1011,8 hPa 0,0 l/m N 0,00 h 0 W/m 0,0 km/h (0 Bft)
28.03.2016 04:00 0,4 C 93 % 1010,9 hPa 0,0 l/m N 0,00 h 0 W/m 0,0 km/h (0 Bft)
28.03.2016 05:00 -0,2 C 94 % 1010,0 hPa 0,0 l/m N 0,00 h 0 W/m 0,0 km/h (0 Bft)
28.03.2016 06:00 -0,7 C 95 % 1009,1 hPa 0,0 l/m N 0,00 h 0 W/m 0,0 km/h (0 Bft)
28.03.2016 07:00 -0,7 C 95 % 1008,6 hPa 0,0 l/m N 0,17 h 26 W/m 0,0 km/h (0 Bft)
28.03.2016 08:00 0,6 C 97 % 1008,7 hPa 0,2 l/m N 0,00 h 94 W/m 0,0 km/h (0 Bft)
28.03.2016 09:00 2,6 C 98 % 1008,5 hPa 0,0 l/m SW 1,00 h 327 W/m 2,1 km/h (1 Bft)
28.03.2016 10:00 6,6 C 91 % 1008,1 hPa 0,0 l/m S-SW 0,75 h 336 W/m 10,3 km/h (2 Bft)
28.03.2016 11:00 9,2 C 77 % 1007,9 hPa 0,0 l/m S-SW 0,50 h 395 W/m 18,6 km/h (3 Bft)
28.03.2016 12:00 10,1 C 66 % 1007,7 hPa 0,0 l/m W 0,00 h 242 W/m 26,4 km/h (4 Bft)
28.03.2016 13:00 10,8 C 59 % 1007,1 hPa 0,0 l/m W 0,08 h 229 W/m 30,8 km/h (5 Bft)
28.03.2016 14:00 11,1 C 59 % 1006,9 hPa 0,0 l/m W 0,00 h 185 W/m 33,8 km/h (5 Bft)
28.03.2016 15:00 11,9 C 60 % 1006,3 hPa 0,0 l/m W-SW 0,58 h 521 W/m 28,3 km/h (4 Bft)
28.03.2016 16:00 12,6 C 57 % 1005,5 hPa 0,0 l/m W 0,58 h 394 W/m 32,2 km/h (5 Bft)
28.03.2016 17:00 13,1 C 58 % 1004,7 hPa 0,0 l/m W-SW 1,00 h 396 W/m 31,1 km/h (5 Bft)
28.03.2016 18:00 12,9 C 57 % 1004,2 hPa 0,0 l/m W-SW 0,92 h 198 W/m 32,5 km/h (5 Bft)
28.03.2016 19:00 12,4 C 58 % 1003,9 hPa 0,0 l/m W-SW 0,00 h 15 W/m 31,9 km/h (5 Bft)
28.03.2016 20:00 12,1 C 59 % 1004,3 hPa 0,0 l/m W-SW 0,00 h 0 W/m 38,0 km/h (5 Bft)
28.03.2016 21:00 12,0 C 58 % 1005,2 hPa 0,0 l/m W-SW 0,00 h 0 W/m 36,1 km/h (5 Bft)
28.03.2016 22:00 11,8 C 58 % 1005,7 hPa 0,0 l/m SW 0,00 h 0 W/m 26,9 km/h (4 Bft)
28.03.2016 23:00 11,4 C 64 % 1006,5 hPa 0,0 l/m W-NW 0,00 h 0 W/m 31,9 km/h (5 Bft)
29.03.2016 00:00 8,3 C 81 % 1007,2 hPa 0,0 l/m W-NW 0,00 h 0 W/m 6,3 km/h (2 Bft)
29.03.2016 01:00 8,2 C 78 % 1007,1 hPa 0,0 l/m W-SW 0,00 h 0 W/m 16,8 km/h (3 Bft)
29.03.2016 02:00 9,4 C 69 % 1007,2 hPa 0,0 l/m W-SW 0,00 h 0 W/m 22,1 km/h (4 Bft)
29.03.2016 03:00 8,4 C 77 % 1008,1 hPa 0,0 l/m W-NW 0,00 h 0 W/m 24,7 km/h (4 Bft)
29.03.2016 04:00 7,5 C 80 % 1008,6 hPa 0,0 l/m W 0,00 h 0 W/m 26,6 km/h (4 Bft)
29.03.2016 05:00 7,8 C 75 % 1008,8 hPa 0,0 l/m W-SW 0,00 h 0 W/m 22,8 km/h (4 Bft)
29.03.2016 06:00 7,4 C 74 % 1009,1 hPa 0,0 l/m W 0,00 h 0 W/m 21,3 km/h (4 Bft)
29.03.2016 07:00 6,9 C 75 % 1010,1 hPa 0,0 l/m W-NW 0,00 h 18 W/m 16,6 km/h (3 Bft)
29.03.2016 08:00 6,9 C 75 % 1010,6 hPa 0,0 l/m W 0,42 h 127 W/m 19,0 km/h (3 Bft)
29.03.2016 09:00 8,1 C 67 % 1011,2 hPa 0,0 l/m W-NW 1,00 h 321 W/m 29,0 km/h (5 Bft)
29.03.2016 10:00 9,3 C 60 % 1011,6 hPa 0,0 l/m W-NW 1,00 h 489 W/m 30,2 km/h (5 Bft)
29.03.2016 11:00 10,3 C 54 % 1011,6 hPa 0,0 l/m W 1,00 h 650 W/m 36,5 km/h (5 Bft)
29.03.2016 12:00 11,4 C 51 % 1011,3 hPa 0,0 l/m W 0,75 h 675 W/m 32,9 km/h (5 Bft)
29.03.2016 13:00 12,5 C 48 % 1011,0 hPa 0,0 l/m W-SW 0,58 h 611 W/m 32,1 km/h (5 Bft)
29.03.2016 14:00 13,6 C 46 % 1010,7 hPa 0,0 l/m W 1,00 h 709 W/m 36,2 km/h (5 Bft)
29.03.2016 15:00 13,9 C 46 % 1010,3 hPa 0,0 l/m W-SW 0,67 h 455 W/m 32,7 km/h (5 Bft)
29.03.2016 16:00 13,8 C 47 % 1010,2 hPa 0,0 l/m W 0,58 h 393 W/m 32,5 km/h (5 Bft)
29.03.2016 17:00 13,9 C 47 % 1009,9 hPa 0,0 l/m W 0,83 h 285 W/m 26,4 km/h (4 Bft)
29.03.2016 18:00 13,3 C 49 % 1010,1 hPa 0,0 l/m W 0,33 h 94 W/m 21,8 km/h (4 Bft)
29.03.2016 19:00 12,2 C 55 % 1010,7 hPa 0,0 l/m W 0,00 h 18 W/m 16,4 km/h (3 Bft)
29.03.2016 20:00 10,4 C 67 % 1011,8 hPa 0,2 l/m W-NW 0,00 h 0 W/m 21,6 km/h (4 Bft)
29.03.2016 21:00 9,0 C 75 % 1012,4 hPa 0,0 l/m W 0,00 h 0 W/m 12,6 km/h (3 Bft)
29.03.2016 22:00 8,8 C 76 % 1012,6 hPa 0,0 l/m W 0,00 h 0 W/m 12,6 km/h (3 Bft)
29.03.2016 23:00 7,5 C 84 % 1012,8 hPa 0,0 l/m SW 0,00 h 0 W/m 7,6 km/h (2 Bft)
30.03.2016 00:00 7,7 C 89 % 1012,6 hPa 0,0 l/m SW 0,00 h 0 W/m 11,8 km/h (2 Bft)
30.03.2016 01:00 7,3 C 92 % 1012,3 hPa 0,2 l/m SW 0,00 h 0 W/m 9,9 km/h (2 Bft)
30.03.2016 02:00 7,6 C 92 % 1012,1 hPa 0,0 l/m SW 0,00 h 0 W/m 9,5 km/h (2 Bft)
30.03.2016 03:00 7,7 C 92 % 1011,7 hPa 0,0 l/m SW 0,00 h 0 W/m 10,2 km/h (2 Bft)
30.03.2016 04:00 8,3 C 89 % 1011,3 hPa 0,0 l/m SW 0,00 h 0 W/m 12,4 km/h (3 Bft)
30.03.2016 05:00 8,0 C 91 % 1010,6 hPa 0,0 l/m SW 0,00 h 0 W/m 10,6 km/h (2 Bft)
30.03.2016 06:00 8,3 C 89 % 1010,4 hPa 0,0 l/m SW 0,00 h 0 W/m 12,9 km/h (3 Bft)
30.03.2016 07:00 9,0 C 86 % 1010,5 hPa 0,0 l/m W-SW 0,00 h 13 W/m 10,5 km/h (2 Bft)
30.03.2016 08:00 8,7 C 89 % 1010,8 hPa 0,0 l/m SW 0,00 h 54 W/m 12,0 km/h (2 Bft)
30.03.2016 09:00 10,2 C 87 % 1011,0 hPa 0,0 l/m SW 0,00 h 107 W/m 14,2 km/h (3 Bft)
30.03.2016 10:00 11,0 C 84 % 1011,2 hPa 0,0 l/m SW 0,00 h 136 W/m 15,0 km/h (3 Bft)
30.03.2016 11:00 11,8 C 79 % 1011,2 hPa 0,0 l/m W-SW 0,00 h 84 W/m 13,7 km/h (3 Bft)
30.03.2016 12:00 12,3 C 77 % 1011,2 hPa 0,0 l/m W-SW 0,00 h 126 W/m 12,9 km/h (3 Bft)
30.03.2016 13:00 13,5 C 71 % 1011,3 hPa 0,0 l/m W 0,00 h 253 W/m 19,0 km/h (3 Bft)
30.03.2016 14:00 14,7 C 68 % 1011,1 hPa 0,0 l/m W-SW 0,00 h 241 W/m 21,3 km/h (4 Bft)
30.03.2016 15:00 15,6 C 63 % 1010,6 hPa 0,0 l/m W 0,08 h 290 W/m 23,4 km/h (4 Bft)
30.03.2016 16:00 16,1 C 58 % 1010,1 hPa 0,0 l/m W-SW 0,08 h 165 W/m 25,9 km/h (4 Bft)
30.03.2016 17:00 14,8 C 64 % 1010,4 hPa 1,0 l/m W-NW 0,00 h 38 W/m 21,6 km/h (4 Bft)
30.03.2016 18:00 11,3 C 89 % 1010,6 hPa 1,0 l/m W-NW 0,17 h 100 W/m 8,3 km/h (2 Bft)
30.03.2016 19:00 10,7 C 94 % 1010,5 hPa 0,0 l/m N 0,00 h 13 W/m 0,0 km/h (0 Bft)
30.03.2016 20:00 10,0 C 97 % 1010,6 hPa 0,0 l/m N 0,00 h 0 W/m 0,0 km/h (0 Bft)
30.03.2016 21:00 9,5 C 98 % 1010,6 hPa 0,0 l/m N 0,00 h 0 W/m 0,0 km/h (0 Bft)
30.03.2016 22:00 9,3 C 98 % 1010,4 hPa 0,4 l/m W-NW 0,00 h 0 W/m 0,7 km/h (0 Bft)
30.03.2016 23:00 9,2 C 99 % 1010,1 hPa 0,2 l/m W-NW 0,00 h 0 W/m 0,9 km/h (0 Bft)
31.03.2016 00:00 8,9 C 99 % 1009,7 hPa 0,2 l/m W-NW 0,00 h 0 W/m 0,8 km/h (0 Bft)
31.03.2016 01:00 8,5 C 99 % 1009,4 hPa 0,0 l/m N 0,00 h 0 W/m 0,0 km/h (0 Bft)
31.03.2016 02:00 7,7 C 99 % 1009,2 hPa 0,0 l/m N 0,00 h 0 W/m 0,1 km/h (0 Bft)
31.03.2016 03:00 6,9 C 99 % 1009,0 hPa 0,0 l/m N 0,00 h 0 W/m 0,0 km/h (0 Bft)
31.03.2016 04:00 5,7 C 99 % 1008,8 hPa 0,0 l/m N 0,00 h 0 W/m 0,0 km/h (0 Bft)
31.03.2016 05:00 5,2 C 99 % 1008,5 hPa 0,0 l/m N 0,00 h 0 W/m 0,0 km/h (0 Bft)
31.03.2016 06:00 5,0 C 99 % 1008,3 hPa 0,0 l/m W-NW 0,00 h 0 W/m 3,7 km/h (1 Bft)
31.03.2016 07:00 4,8 C 99 % 1008,6 hPa 0,0 l/m NW 0,00 h 16 W/m 4,9 km/h (1 Bft)
31.03.2016 08:00 6,5 C 100 % 1008,6 hPa 0,0 l/m NW 0,58 h 146 W/m 0,4 km/h (0 Bft)
31.03.2016 09:00 8,6 C 99 % 1008,5 hPa 0,0 l/m NW 1,00 h 325 W/m 4,8 km/h (1 Bft)
31.03.2016 10:00 11,4 C 90 % 1008,0 hPa 0,0 l/m NO 1,00 h 492 W/m 4,4 km/h (1 Bft)
31.03.2016 11:00 14,3 C 69 % 1007,3 hPa 0,0 l/m NO 1,00 h 626 W/m 5,2 km/h (1 Bft)
31.03.2016 12:00 17,3 C 56 % 1006,4 hPa 0,0 l/m SO 1,00 h 718 W/m 6,7 km/h (2 Bft)
31.03.2016 13:00 20,4 C 45 % 1005,5 hPa 0,0 l/m S-SW 1,00 h 699 W/m 13,7 km/h (3 Bft)
31.03.2016 14:00 21,2 C 38 % 1004,8 hPa 0,0 l/m SW 0,58 h 469 W/m 22,2 km/h (4 Bft)
31.03.2016 15:00 20,8 C 37 % 1004,2 hPa 0,0 l/m SW 0,25 h 306 W/m 29,8 km/h (5 Bft)
31.03.2016 16:00 19,4 C 40 % 1003,9 hPa 0,0 l/m SW 0,00 h 116 W/m 25,9 km/h (4 Bft)
31.03.2016 17:00 18,6 C 43 % 1003,5 hPa 0,0 l/m SW 0,00 h 128 W/m 13,7 km/h (3 Bft)
31.03.2016 18:00 18,3 C 44 % 1002,8 hPa 0,0 l/m SW 0,00 h 84 W/m 7,4 km/h (2 Bft)
31.03.2016 19:00 16,9 C 52 % 1002,6 hPa 0,0 l/m W-SW 0,08 h 19 W/m 2,3 km/h (1 Bft)
31.03.2016 20:00 14,0 C 73 % 1002,8 hPa 0,0 l/m N 0,00 h 0 W/m 0,9 km/h (0 Bft)
31.03.2016 21:00 12,7 C 83 % 1003,4 hPa 0,0 l/m NW 0,00 h 0 W/m 6,6 km/h (2 Bft)
31.03.2016 22:00 11,7 C 87 % 1003,6 hPa 0,0 l/m N-NW 0,00 h 0 W/m 1,3 km/h (1 Bft)
31.03.2016 23:00 10,2 C 90 % 1003,3 hPa 0,0 l/m N 0,00 h 0 W/m 0,0 km/h (0 Bft)
01.04.2016 00:00 9,2 C 92 % 1002,9 hPa 0,0 l/m N 0,00 h 0 W/m 0,0 km/h (0 Bft)
01.04.2016 01:00 8,6 C 92 % 1003,3 hPa 0,0 l/m N 0,00 h 0 W/m 0,1 km/h (0 Bft)
01.04.2016 02:00 8,2 C 92 % 1003,5 hPa 0,0 l/m NW 0,00 h 0 W/m 1,9 km/h (1 Bft)
01.04.2016 03:00 12,1 C 69 % 1004,5 hPa 0,0 l/m W 0,00 h 0 W/m 16,4 km/h (3 Bft)
01.04.2016 04:00 11,5 C 79 % 1005,8 hPa 0,0 l/m W-NW 0,00 h 0 W/m 15,8 km/h (3 Bft)
01.04.2016 05:00 9,1 C 85 % 1007,3 hPa 0,0 l/m W-NW 0,00 h 0 W/m 2,7 km/h (1 Bft)
01.04.2016 06:00 7,8 C 92 % 1008,2 hPa 0,0 l/m N 0,00 h 0 W/m 0,0 km/h (0 Bft)
01.04.2016 07:00 8,1 C 92 % 1009,2 hPa 0,0 l/m N 0,00 h 8 W/m 0,0 km/h (0 Bft)
01.04.2016 08:00 8,6 C 93 % 1010,5 hPa 0,0 l/m NW 0,00 h 11 W/m 3,3 km/h (1 Bft)
01.04.2016 09:00 9,0 C 93 % 1011,8 hPa 0,0 l/m N 0,00 h 83 W/m 1,5 km/h (1 Bft)
01.04.2016 10:00 9,9 C 90 % 1012,6 hPa 0,0 l/m NW 0,00 h 221 W/m 6,0 km/h (2 Bft)
01.04.2016 11:00 10,6 C 86 % 1013,4 hPa 0,0 l/m N-NO 0,00 h 162 W/m 9,8 km/h (2 Bft)
01.04.2016 12:00 10,6 C 83 % 1014,1 hPa 0,0 l/m N-NO 0,00 h 101 W/m 12,4 km/h (3 Bft)
01.04.2016 13:00 10,1 C 82 % 1014,7 hPa 0,0 l/m N-NO 0,00 h 109 W/m 14,8 km/h (3 Bft)
01.04.2016 14:00 9,9 C 81 % 1014,9 hPa 0,0 l/m N-NO 0,00 h 114 W/m 15,4 km/h (3 Bft)
01.04.2016 15:00 10,1 C 81 % 1015,1 hPa 0,0 l/m O-NO 0,00 h 108 W/m 12,1 km/h (2 Bft)
01.04.2016 16:00 10,0 C 81 % 1015,4 hPa 0,0 l/m O-NO 0,00 h 95 W/m 19,2 km/h (3 Bft)
01.04.2016 17:00 9,1 C 83 % 1015,6 hPa 0,0 l/m O-NO 0,00 h 79 W/m 19,4 km/h (3 Bft)
01.04.2016 18:00 8,5 C 84 % 1016,1 hPa 0,0 l/m O-NO 0,00 h 35 W/m 16,0 km/h (3 Bft)
01.04.2016 19:00 8,0 C 85 % 1016,7 hPa 0,0 l/m O-NO 0,00 h 14 W/m 14,2 km/h (3 Bft)
01.04.2016 20:00 7,3 C 87 % 1017,4 hPa 0,0 l/m O-NO 0,00 h 0 W/m 11,4 km/h (2 Bft)
01.04.2016 21:00 7,1 C 88 % 1017,9 hPa 0,0 l/m NO 0,00 h 0 W/m 8,0 km/h (2 Bft)
01.04.2016 22:00 6,9 C 90 % 1017,6 hPa 0,0 l/m NO 0,00 h 0 W/m 6,2 km/h (2 Bft)
01.04.2016 23:00 6,7 C 91 % 1017,3 hPa 0,0 l/m NO 0,00 h 0 W/m 6,7 km/h (2 Bft)
02.04.2016 00:00 6,8 C 92 % 1017,3 hPa 0,0 l/m O-SO 0,00 h 0 W/m 4,5 km/h (1 Bft)
02.04.2016 01:00 6,8 C 93 % 1017,7 hPa 0,0 l/m NO 0,00 h 0 W/m 6,2 km/h (2 Bft)
02.04.2016 02:00 6,6 C 93 % 1017,2 hPa 0,0 l/m O-NO 0,00 h 0 W/m 9,1 km/h (2 Bft)
02.04.2016 03:00 6,2 C 94 % 1016,8 hPa 0,0 l/m NO 0,00 h 0 W/m 7,0 km/h (2 Bft)
02.04.2016 04:00 6,1 C 94 % 1016,8 hPa 0,0 l/m NO 0,00 h 0 W/m 5,9 km/h (2 Bft)
02.04.2016 05:00 6,1 C 95 % 1016,6 hPa 0,0 l/m NO 0,00 h 0 W/m 4,9 km/h (1 Bft)
02.04.2016 06:00 6,0 C 96 % 1016,1 hPa 0,0 l/m NO 0,00 h 0 W/m 4,9 km/h (1 Bft)
02.04.2016 07:00 6,2 C 96 % 1015,9 hPa 0,0 l/m O-NO 0,00 h 12 W/m 7,5 km/h (2 Bft)
02.04.2016 08:00 6,6 C 96 % 1016,1 hPa 0,0 l/m O 0,00 h 34 W/m 8,9 km/h (2 Bft)
02.04.2016 09:00 6,9 C 95 % 1016,1 hPa 0,0 l/m O-NO 0,00 h 62 W/m 10,5 km/h (2 Bft)
02.04.2016 10:00 7,5 C 93 % 1016,3 hPa 0,0 l/m O-NO 0,00 h 98 W/m 11,6 km/h (2 Bft)
02.04.2016 11:00 8,3 C 91 % 1016,3 hPa 0,0 l/m O-NO 0,00 h 145 W/m 10,9 km/h (2 Bft)
02.04.2016 12:00 9,4 C 87 % 1015,9 hPa 0,0 l/m O 0,00 h 265 W/m 11,6 km/h (2 Bft)
02.04.2016 13:00 11,3 C 82 % 1015,3 hPa 0,0 l/m O-NO 0,92 h 556 W/m 13,3 km/h (3 Bft)
02.04.2016 14:00 13,1 C 77 % 1014,6 hPa 0,0 l/m NO 1,00 h 645 W/m 15,0 km/h (3 Bft)
02.04.2016 15:00 14,2 C 74 % 1013,9 hPa 0,0 l/m NO 0,92 h 468 W/m 12,9 km/h (3 Bft)
02.04.2016 16:00 15,2 C 71 % 1013,3 hPa 0,0 l/m O-NO 0,83 h 425 W/m 13,0 km/h (3 Bft)
02.04.2016 17:00 15,4 C 70 % 1012,9 hPa 0,0 l/m NO 0,50 h 226 W/m 12,2 km/h (2 Bft)
02.04.2016 18:00 15,0 C 73 % 1012,6 hPa 0,0 l/m NO 0,58 h 128 W/m 9,3 km/h (2 Bft)
02.04.2016 19:00 14,2 C 78 % 1012,6 hPa 0,0 l/m O-NO 0,00 h 21 W/m 6,8 km/h (2 Bft)
02.04.2016 20:00 12,4 C 84 % 1012,7 hPa 0,0 l/m N 0,00 h 0 W/m 1,6 km/h (1 Bft)
02.04.2016 21:00 10,8 C 89 % 1012,5 hPa 0,0 l/m O-NO 0,00 h 0 W/m 0,3 km/h (0 Bft)
02.04.2016 22:00 10,1 C 91 % 1012,3 hPa 0,0 l/m O-NO 0,00 h 0 W/m 2,7 km/h (1 Bft)
02.04.2016 23:00 9,6 C 93 % 1012,1 hPa 0,0 l/m N 0,00 h 0 W/m 0,3 km/h (0 Bft)
03.04.2016 00:00 8,7 C 94 % 1011,9 hPa 0,0 l/m N 0,00 h 0 W/m 0,0 km/h (0 Bft)
03.04.2016 01:00 8,2 C 96 % 1011,8 hPa 0,0 l/m N 0,00 h 0 W/m 0,8 km/h (0 Bft)
03.04.2016 02:00 7,8 C 96 % 1011,7 hPa 0,0 l/m N 0,00 h 0 W/m 0,4 km/h (0 Bft)
03.04.2016 03:00 7,3 C 97 % 1011,5 hPa 0,0 l/m N 0,00 h 0 W/m 0,3 km/h (0 Bft)
03.04.2016 04:00 6,5 C 97 % 1011,5 hPa 0,0 l/m N 0,00 h 0 W/m 0,0 km/h (0 Bft)
03.04.2016 05:00 6,2 C 97 % 1011,5 hPa 0,0 l/m N 0,00 h 0 W/m 0,0 km/h (0 Bft)
03.04.2016 06:00 6,4 C 98 % 1011,6 hPa 0,0 l/m N 0,00 h 0 W/m 0,0 km/h (0 Bft)
03.04.2016 07:00 6,6 C 97 % 1011,6 hPa 0,0 l/m N 0,00 h 10 W/m 0,0 km/h (0 Bft)
03.04.2016 08:00 7,6 C 97 % 1011,9 hPa 0,0 l/m N-NO 0,00 h 31 W/m 4,4 km/h (1 Bft)
03.04.2016 09:00 9,0 C 94 % 1012,1 hPa 0,0 l/m N 0,00 h 101 W/m 5,0 km/h (1 Bft)
03.04.2016 10:00 11,1 C 88 % 1011,9 hPa 0,0 l/m N 0,50 h 328 W/m 3,8 km/h (1 Bft)
03.04.2016 11:00 15,1 C 73 % 1011,6 hPa 0,0 l/m N 1,00 h 596 W/m 6,1 km/h (2 Bft)
03.04.2016 12:00 18,5 C 59 % 1010,9 hPa 0,0 l/m O 1,00 h 663 W/m 8,6 km/h (2 Bft)
03.04.2016 13:00 20,5 C 44 % 1010,1 hPa 0,0 l/m O-NO 1,00 h 600 W/m 5,8 km/h (1 Bft)
03.04.2016 14:00 21,9 C 43 % 1009,1 hPa 0,0 l/m N-NW 1,00 h 666 W/m 9,9 km/h (2 Bft)
03.04.2016 15:00 22,6 C 45 % 1008,4 hPa 0,0 l/m O-NO 1,00 h 626 W/m 15,4 km/h (3 Bft)
03.04.2016 16:00 22,0 C 48 % 1007,8 hPa 0,0 l/m NO 0,42 h 263 W/m 12,0 km/h (2 Bft)
03.04.2016 17:00 20,6 C 53 % 1007,3 hPa 0,0 l/m N-NO 0,00 h 114 W/m 7,5 km/h (2 Bft)
03.04.2016 18:00 20,2 C 51 % 1007,0 hPa 0,0 l/m SW 0,58 h 112 W/m 7,8 km/h (2 Bft)
03.04.2016 19:00 19,2 C 43 % 1007,1 hPa 0,0 l/m SW 0,00 h 23 W/m 16,6 km/h (3 Bft)
03.04.2016 20:00 17,5 C 45 % 1007,2 hPa 0,0 l/m SW 0,00 h 0 W/m 8,0 km/h (2 Bft)
03.04.2016 21:00 15,3 C 54 % 1007,2 hPa 0,0 l/m N 0,00 h 0 W/m 0,0 km/h (0 Bft)
03.04.2016 22:00 15,4 C 53 % 1006,9 hPa 0,0 l/m S-SO 0,00 h 0 W/m 2,7 km/h (1 Bft)
03.04.2016 23:00 14,2 C 58 % 1006,5 hPa 0,0 l/m N 0,00 h 0 W/m 0,0 km/h (0 Bft)
Min-Datum _ 28.03.16 31.03.16 31.03.16 - - - - 28.03.16
_ Min-Zeit 07:15 15:25 18:55 - - - - 00:30
Minimum _ -0,8 C 36 % 1002,4 hPa - - - - 0,0 km/h (0 Bft)
Max-Datum _ 03.04.16 31.03.16 01.04.16 30.03.16 - 28.03.16 29.03.16 28.03.16
_ Max-Zeit 15:10 07:30 21:15 17:55 - 07:20 12:45 23:20
Maximum _ 22,8 C 100 % 1018,0 hPa 1,0 l/m - 0,08 h 872 W/m 51,5 km/h
W-NW (7 Bft)
Durchschnitt _ 10,3 C 78 % 1010,3 hPa #3,4 l/m SW #31:50 h 245 W/m 11,4 km/h (2 Bft)